createdAt,value
2017-06-21T00:00:23.650Z,6.84
2017-06-21T00:01:18.763Z,5.39
2017-06-21T00:02:19.759Z,1.89
2017-06-21T00:03:13.904Z,3.86
2017-06-21T00:04:01.919Z,2.39
2017-06-21T00:04:55.950Z,1.46
2017-06-21T00:05:49.943Z,3.85
2017-06-21T00:06:44.970Z,1.38
2017-06-21T00:07:40.057Z,1.06
2017-06-21T00:08:29.057Z,2.85
2017-06-21T00:09:18.101Z,4.62
2017-06-21T00:10:12.070Z,3.62
2017-06-21T00:11:06.228Z,4.69
2017-06-21T00:12:12.241Z,2.61
2017-06-21T00:13:12.336Z,4.54
2017-06-21T00:14:07.306Z,1.76
2017-06-21T00:14:56.026Z,3.92
2017-06-21T00:15:50.325Z,4.54
2017-06-21T00:16:50.422Z,3.62
2017-06-21T00:17:44.612Z,3.27
2017-06-21T00:18:44.221Z,4.77
2017-06-21T00:19:33.562Z,5.00
2017-06-21T00:20:21.662Z,3.27
2017-06-21T00:21:10.331Z,1.06
2017-06-21T00:22:05.409Z,0.51
2017-06-21T00:22:59.767Z,-1.21
2017-06-21T00:23:59.461Z,-3.49
2017-06-21T00:24:59.672Z,-4.12
2017-06-21T00:25:48.774Z,-4.12
2017-06-21T00:26:42.750Z,-4.12
2017-06-21T00:27:48.965Z,-4.12
2017-06-21T00:28:42.956Z,-4.12
2017-06-21T00:29:31.966Z,-4.12
2017-06-21T00:30:27.003Z,-4.12
2017-06-21T00:31:20.994Z,-3.57
2017-06-21T00:32:16.015Z,-4.12
2017-06-21T00:33:15.850Z,-2.78
2017-06-21T00:34:10.363Z,-1.60
2017-06-21T00:35:05.086Z,-1.68
2017-06-21T00:35:59.962Z,-3.80
2017-06-21T00:36:53.969Z,-1.91
2017-06-21T00:37:49.368Z,-4.12
2017-06-21T00:38:38.334Z,-3.41
2017-06-21T00:39:33.394Z,-2.70
2017-06-21T00:40:33.141Z,-2.62
2017-06-21T00:41:22.349Z,-4.12
2017-06-21T00:42:16.197Z,-4.12
2017-06-21T00:43:11.625Z,-3.25
2017-06-21T00:44:11.290Z,-2.86
2017-06-21T00:45:17.318Z,-4.12
2017-06-21T00:46:11.376Z,-4.12
2017-06-21T00:47:06.449Z,-4.12
2017-06-21T00:48:06.458Z,-4.12
2017-06-21T00:49:00.537Z,-4.12
2017-06-21T00:49:54.537Z,-4.12
2017-06-21T00:50:48.558Z,-4.12
2017-06-21T00:51:43.604Z,-4.12
2017-06-21T00:52:37.665Z,-4.12
2017-06-21T00:53:31.857Z,-4.12
2017-06-21T00:54:31.730Z,-4.12
2017-06-21T00:55:31.848Z,-4.12
2017-06-21T00:56:25.774Z,-4.12
2017-06-21T00:57:14.829Z,-4.12
2017-06-21T00:58:09.206Z,-4.12
2017-06-21T00:59:02.928Z,-4.13
2017-06-21T00:59:57.910Z,-4.13
2017-06-21T01:00:46.959Z,-4.13
2017-06-21T01:01:42.056Z,-4.13
2017-06-21T01:02:30.050Z,-4.13
2017-06-21T01:03:30.110Z,-4.13
2017-06-21T01:04:25.129Z,-4.13
2017-06-21T01:05:25.141Z,-4.13
2017-06-21T01:06:20.198Z,-4.13
2017-06-21T01:07:14.400Z,-4.13
2017-06-21T01:08:14.645Z,-4.13
2017-06-21T01:09:08.350Z,-4.13
2017-06-21T01:09:57.345Z,-4.13
2017-06-21T01:10:51.417Z,-4.13
2017-06-21T01:11:57.414Z,-4.13
2017-06-21T01:12:51.516Z,-4.13
2017-06-21T01:13:45.444Z,-4.13
2017-06-21T01:14:34.510Z,-4.13
2017-06-21T01:15:34.590Z,-4.13
2017-06-21T01:16:28.651Z,-4.13
2017-06-21T01:17:28.647Z,-4.13
2017-06-21T01:18:23.684Z,-4.13
2017-06-21T01:19:17.694Z,-4.13
2017-06-21T01:20:06.758Z,-4.13
2017-06-21T01:21:00.771Z,-4.13
2017-06-21T01:22:00.819Z,-4.13
2017-06-21T01:22:55.930Z,-4.13
2017-06-21T01:23:51.212Z,-4.13
2017-06-21T01:24:50.939Z,-4.13
2017-06-21T01:25:45.087Z,-4.13
2017-06-21T01:26:45.039Z,-4.13
2017-06-21T01:27:40.031Z,-4.13
2017-06-21T01:28:34.130Z,-4.13
2017-06-21T01:29:29.477Z,-4.13
2017-06-21T01:30:23.168Z,-4.14
2017-06-21T01:31:24.183Z,-4.14
2017-06-21T01:32:12.249Z,-4.14
2017-06-21T01:33:01.375Z,-4.14
2017-06-21T01:33:55.510Z,-4.14
2017-06-21T01:34:50.332Z,-4.14
2017-06-21T01:35:44.404Z,-4.14
2017-06-21T01:36:39.449Z,-4.14
2017-06-21T01:37:33.465Z,-4.14
2017-06-21T01:38:27.514Z,-4.14
2017-06-21T01:39:21.551Z,-4.14
2017-06-21T01:40:15.675Z,-4.14
2017-06-21T01:41:16.962Z,-4.14
2017-06-21T01:42:11.654Z,-4.14
2017-06-21T01:43:00.762Z,-4.14
2017-06-21T01:43:55.701Z,-4.14
2017-06-21T01:44:49.734Z,-4.14
2017-06-21T01:45:43.832Z,-4.14
2017-06-21T01:46:32.817Z,-4.14
2017-06-21T01:47:32.964Z,-4.14
2017-06-21T01:48:27.938Z,-4.14
2017-06-21T01:49:21.924Z,-4.14
2017-06-21T01:50:22.029Z,-4.14
2017-06-21T01:51:16.062Z,-4.14
2017-06-21T01:52:22.070Z,-4.14
2017-06-21T01:53:16.249Z,-4.14
2017-06-21T01:54:11.153Z,-4.14
2017-06-21T01:55:05.238Z,-4.14
2017-06-21T01:56:05.542Z,-4.14
2017-06-21T01:56:54.341Z,-4.14
2017-06-21T01:57:48.264Z,-4.14
2017-06-21T01:58:36.319Z,-4.14
2017-06-21T01:59:25.369Z,-4.14
2017-06-21T02:00:13.431Z,-4.14
2017-06-21T02:01:07.446Z,-4.14
2017-06-21T02:02:01.558Z,-4.14
2017-06-21T02:02:55.929Z,-4.14
2017-06-21T02:03:55.570Z,-4.14
2017-06-21T02:04:44.673Z,-4.14
2017-06-21T02:05:39.641Z,-4.14
2017-06-21T02:06:33.676Z,-4.14
2017-06-21T02:07:28.732Z,-4.14
2017-06-21T02:08:17.965Z,-4.14
2017-06-21T02:09:12.892Z,-4.14
2017-06-21T02:10:07.255Z,-4.14
2017-06-21T02:11:06.853Z,-4.15
2017-06-21T02:12:00.924Z,-4.15
2017-06-21T02:12:55.356Z,-4.15
2017-06-21T02:13:49.021Z,-4.15
2017-06-21T02:14:44.064Z,-4.14
2017-06-21T02:15:38.086Z,-4.14
2017-06-21T02:16:27.130Z,-4.14
2017-06-21T02:17:21.144Z,-4.14
2017-06-21T02:18:16.555Z,-4.15
2017-06-21T02:19:10.201Z,-4.15
2017-06-21T02:20:05.249Z,-4.15
2017-06-21T02:21:00.270Z,-4.15
2017-06-21T02:21:54.586Z,-4.15
2017-06-21T02:22:49.723Z,-4.14
2017-06-21T02:23:38.455Z,-4.15
2017-06-21T02:24:26.460Z,-4.15
2017-06-21T02:25:26.542Z,-4.15
2017-06-21T02:26:26.528Z,-4.15
2017-06-21T02:27:14.547Z,-4.15
2017-06-21T02:28:02.868Z,-4.15
2017-06-21T02:28:51.925Z,-4.15
2017-06-21T02:29:45.719Z,-4.15
2017-06-21T02:30:39.736Z,-4.15
2017-06-21T02:31:33.742Z,-4.15
2017-06-21T02:32:34.160Z,-4.15
2017-06-21T02:33:23.190Z,-4.15
2017-06-21T02:34:17.933Z,-4.15
2017-06-21T02:35:13.040Z,-4.15
2017-06-21T02:36:06.990Z,-4.15
2017-06-21T02:37:02.037Z,-4.15
2017-06-21T02:37:56.038Z,-4.15
2017-06-21T02:38:44.112Z,-4.15
2017-06-21T02:39:38.263Z,-4.15
2017-06-21T02:40:39.206Z,-4.15
2017-06-21T02:41:33.213Z,-4.15
2017-06-21T02:42:33.639Z,-4.15
2017-06-21T02:43:22.297Z,-4.15
2017-06-21T02:44:16.379Z,-4.15
2017-06-21T02:45:16.437Z,-4.15
2017-06-21T02:46:10.366Z,-4.15
2017-06-21T02:47:04.417Z,-4.15
2017-06-21T02:47:52.466Z,-4.15
2017-06-21T02:48:52.597Z,-4.15
2017-06-21T02:49:41.567Z,-4.15
2017-06-21T02:50:29.637Z,-4.15
2017-06-21T02:51:18.656Z,-4.15
2017-06-21T02:52:18.647Z,-4.15
2017-06-21T02:53:18.689Z,-4.15
2017-06-21T02:54:13.716Z,-4.15
2017-06-21T02:55:13.763Z,-4.15
2017-06-21T02:56:13.835Z,-4.15
2017-06-21T02:57:07.860Z,-4.15
2017-06-21T02:58:07.895Z,-4.15
2017-06-21T02:59:01.926Z,-4.15
2017-06-21T02:59:55.936Z,-4.15
2017-06-21T03:00:55.958Z,-4.15
2017-06-21T03:01:51.070Z,-4.15
2017-06-21T03:02:51.050Z,-4.15
2017-06-21T03:03:46.092Z,-4.15
2017-06-21T03:04:40.145Z,-4.15
2017-06-21T03:05:35.122Z,-4.15
2017-06-21T03:06:36.204Z,-4.15
2017-06-21T03:07:31.673Z,-4.15
2017-06-21T03:08:31.258Z,-4.15
2017-06-21T03:09:31.403Z,-4.15
2017-06-21T03:10:31.420Z,-4.15
2017-06-21T03:11:31.368Z,-4.15
2017-06-21T03:12:31.829Z,-4.15
2017-06-21T03:13:31.475Z,-4.15
2017-06-21T03:14:31.435Z,-4.15
2017-06-21T03:15:31.508Z,-4.15
2017-06-21T03:16:31.629Z,-4.15
2017-06-21T03:17:32.005Z,-4.15
2017-06-21T03:18:31.906Z,-4.15
2017-06-21T03:19:31.935Z,-4.15
2017-06-21T03:20:25.944Z,-4.15
2017-06-21T03:21:19.962Z,-4.15
2017-06-21T03:22:20.047Z,-4.15
2017-06-21T03:23:14.058Z,-4.15
2017-06-21T03:24:09.058Z,-4.15
2017-06-21T03:25:04.178Z,-4.15
2017-06-21T03:25:58.186Z,-4.15
2017-06-21T03:26:53.225Z,-4.15
2017-06-21T03:27:54.194Z,-4.15
2017-06-21T03:28:48.276Z,-4.15
2017-06-21T03:29:43.332Z,-4.15
2017-06-21T03:30:43.369Z,-4.15
2017-06-21T03:31:38.444Z,-4.15
2017-06-21T03:32:33.515Z,-4.15
2017-06-21T03:33:27.493Z,-4.15
2017-06-21T03:34:27.522Z,-4.15
2017-06-21T03:35:16.598Z,-4.15
2017-06-21T03:36:10.634Z,-4.15
2017-06-21T03:37:10.681Z,-4.14
2017-06-21T03:38:04.771Z,-4.15
2017-06-21T03:39:05.643Z,-4.15
2017-06-21T03:40:11.743Z,-4.15
2017-06-21T03:41:06.793Z,-4.15
2017-06-21T03:42:01.788Z,-4.15
2017-06-21T03:42:49.835Z,-4.15
2017-06-21T03:43:49.893Z,-4.15
2017-06-21T03:44:44.913Z,-4.15
2017-06-21T03:45:39.007Z,-4.14
2017-06-21T03:46:34.433Z,-4.14
2017-06-21T03:47:28.039Z,-4.14
2017-06-21T03:48:22.128Z,-4.14
2017-06-21T03:49:17.145Z,-4.14
2017-06-21T03:50:11.217Z,-4.15
2017-06-21T03:50:59.190Z,-4.15
2017-06-21T03:52:00.330Z,-4.15
2017-06-21T03:53:00.271Z,-4.15
2017-06-21T03:54:00.323Z,-4.15
2017-06-21T03:55:00.348Z,-4.15
2017-06-21T03:56:00.512Z,-4.15
2017-06-21T03:57:00.384Z,-4.15
2017-06-21T03:57:55.433Z,-4.15
2017-06-21T03:58:50.459Z,-4.15
2017-06-21T03:59:51.541Z,-4.15
2017-06-21T04:00:51.532Z,-4.14
2017-06-21T04:01:45.590Z,-4.14
2017-06-21T04:02:45.667Z,-4.14
2017-06-21T04:03:45.699Z,-4.14
2017-06-21T04:04:45.682Z,-4.14
2017-06-21T04:05:39.690Z,-4.14
2017-06-21T04:06:34.831Z,-4.14
2017-06-21T04:07:35.919Z,-4.14
2017-06-21T04:08:35.630Z,-4.14
2017-06-21T04:09:29.633Z,-4.14
2017-06-21T04:10:23.720Z,-4.14
2017-06-21T04:11:17.689Z,-4.14
2017-06-21T04:12:18.735Z,-4.14
2017-06-21T04:13:06.886Z,-4.14
2017-06-21T04:14:06.797Z,-4.14
2017-06-21T04:15:00.942Z,-4.14
2017-06-21T04:15:54.890Z,-4.14
2017-06-21T04:16:54.949Z,-4.14
2017-06-21T04:17:43.130Z,-4.14
2017-06-21T04:18:43.992Z,-4.14
2017-06-21T04:19:44.221Z,-4.14
2017-06-21T04:20:39.079Z,-4.14
2017-06-21T04:21:27.150Z,-4.14
2017-06-21T04:22:15.374Z,-4.14
2017-06-21T04:23:15.177Z,-4.14
2017-06-21T04:24:10.312Z,-4.14
2017-06-21T04:25:10.429Z,-4.14
2017-06-21T04:26:05.619Z,-4.14
2017-06-21T04:27:05.693Z,-4.14
2017-06-21T04:28:00.714Z,-4.14
2017-06-21T04:28:54.738Z,-4.14
2017-06-21T04:29:49.703Z,-4.14
2017-06-21T04:30:43.544Z,-4.14
2017-06-21T04:31:38.562Z,-4.14
2017-06-21T04:32:38.516Z,-4.14
2017-06-21T04:33:33.612Z,-4.14
2017-06-21T04:34:27.648Z,-4.14
2017-06-21T04:35:33.721Z,-4.13
2017-06-21T04:36:28.916Z,-4.13
2017-06-21T04:37:22.800Z,-4.13
2017-06-21T04:38:17.852Z,-4.13
2017-06-21T04:39:17.855Z,-4.13
2017-06-21T04:40:12.057Z,-4.13
2017-06-21T04:41:11.960Z,-4.13
2017-06-21T04:42:05.963Z,-4.13
2017-06-21T04:43:07.177Z,-4.13
2017-06-21T04:44:01.126Z,-4.12
2017-06-21T04:44:55.092Z,-4.12
2017-06-21T04:45:50.148Z,-4.12
2017-06-21T04:46:45.154Z,-4.12
2017-06-21T04:47:33.595Z,-4.12
2017-06-21T04:48:34.262Z,-4.12
2017-06-21T04:49:34.327Z,-4.12
2017-06-21T04:50:22.360Z,-4.12
2017-06-21T04:51:17.566Z,-4.12
2017-06-21T04:52:11.455Z,-4.12
2017-06-21T04:53:00.818Z,-4.12
2017-06-21T04:53:55.521Z,-4.12
2017-06-21T04:54:55.884Z,-4.12
2017-06-21T04:55:50.799Z,-4.12
2017-06-21T04:56:38.988Z,-4.12
2017-06-21T04:57:33.092Z,-2.62
2017-06-21T04:58:27.758Z,-3.72
2017-06-21T04:59:27.938Z,-4.12
2017-06-21T05:00:22.217Z,-1.99
2017-06-21T05:01:17.206Z,-0.73
2017-06-21T05:02:11.221Z,-1.43
2017-06-21T05:03:06.127Z,-4.11
2017-06-21T05:04:07.332Z,5.77
2017-06-21T05:05:01.388Z,2.00
2017-06-21T05:05:55.402Z,6.46
2017-06-21T05:06:49.483Z,4.32
2017-06-21T05:07:38.506Z,7.08
2017-06-21T05:08:32.584Z,8.22
2017-06-21T05:09:20.650Z,8.60
2017-06-21T05:10:09.705Z,13.02
2017-06-21T05:11:04.722Z,12.06
2017-06-21T05:12:04.729Z,12.95
2017-06-21T05:12:53.754Z,7.92
2017-06-21T05:13:47.859Z,9.44
2017-06-21T05:14:47.856Z,14.29
2017-06-21T05:15:41.921Z,15.92
2017-06-21T05:16:36.050Z,12.21
2017-06-21T05:17:31.025Z,8.07
2017-06-21T05:18:20.097Z,17.82
2017-06-21T05:19:09.135Z,19.28
2017-06-21T05:20:03.191Z,19.93
2017-06-21T05:20:58.193Z,19.46
2017-06-21T05:21:59.252Z,12.96
2017-06-21T05:22:54.308Z,12.97
2017-06-21T05:23:48.339Z,20.20
2017-06-21T05:24:48.344Z,21.39
2017-06-21T05:25:48.470Z,25.53
2017-06-21T05:26:42.514Z,22.19
2017-06-21T05:27:42.520Z,26.45
2017-06-21T05:28:37.528Z,26.00
2017-06-21T05:29:37.596Z,22.30
2017-06-21T05:30:37.695Z,19.07
2017-06-21T05:31:37.856Z,24.24
2017-06-21T05:32:37.793Z,24.81
2017-06-21T05:33:37.965Z,27.22
2017-06-21T05:34:37.792Z,27.44
2017-06-21T05:35:32.894Z,28.14
2017-06-21T05:36:33.054Z,28.70
2017-06-21T05:37:27.977Z,31.81
2017-06-21T05:38:21.950Z,32.92
2017-06-21T05:39:17.053Z,28.64
2017-06-21T05:40:12.066Z,30.04
2017-06-21T05:41:07.135Z,35.59
2017-06-21T05:42:02.272Z,36.07
2017-06-21T05:42:56.257Z,35.81
2017-06-21T05:43:56.258Z,36.96
2017-06-21T05:44:50.381Z,32.92
2017-06-21T05:45:50.397Z,36.24
2017-06-21T05:46:44.466Z,43.98
2017-06-21T05:47:38.545Z,43.53
2017-06-21T05:48:27.577Z,44.16
2017-06-21T05:49:21.587Z,45.39
2017-06-21T05:50:21.893Z,45.30
2017-06-21T05:51:21.644Z,44.45
2017-06-21T05:52:21.764Z,41.20
2017-06-21T05:53:16.843Z,42.65
2017-06-21T05:54:10.865Z,44.02
2017-06-21T05:55:10.922Z,42.90
2017-06-21T05:56:05.980Z,44.59
2017-06-21T05:56:55.002Z,41.20
2017-06-21T05:57:49.050Z,41.72
2017-06-21T05:58:43.790Z,46.87
2017-06-21T05:59:38.863Z,44.80
2017-06-21T06:00:33.184Z,45.97
2017-06-21T06:01:26.980Z,47.05
2017-06-21T06:02:16.307Z,45.13
2017-06-21T06:03:10.259Z,43.58
2017-06-21T06:04:10.146Z,39.73
2017-06-21T06:05:11.295Z,41.27
2017-06-21T06:06:05.490Z,43.88
2017-06-21T06:07:00.618Z,47.33
2017-06-21T06:08:01.645Z,50.88
2017-06-21T06:08:55.720Z,50.24
2017-06-21T06:09:49.444Z,50.70
2017-06-21T06:10:49.443Z,49.72
2017-06-21T06:11:38.539Z,50.37
2017-06-21T06:12:34.273Z,50.27
2017-06-21T06:13:22.640Z,49.30
2017-06-21T06:14:17.669Z,53.08
2017-06-21T06:15:17.712Z,52.55
2017-06-21T06:16:11.903Z,50.85
2017-06-21T06:17:11.804Z,49.45
2017-06-21T06:18:06.500Z,53.71
2017-06-21T06:19:06.227Z,51.51
2017-06-21T06:20:00.236Z,52.78
2017-06-21T06:21:01.375Z,51.78
2017-06-21T06:21:55.405Z,52.57
2017-06-21T06:22:43.383Z,52.61
2017-06-21T06:23:32.786Z,51.70
2017-06-21T06:24:27.579Z,53.19
2017-06-21T06:25:28.511Z,54.54
2017-06-21T06:26:17.583Z,54.20
2017-06-21T06:27:11.705Z,54.27
2017-06-21T06:28:11.747Z,54.32
2017-06-21T06:29:05.811Z,53.87
2017-06-21T06:30:00.919Z,55.08
2017-06-21T06:30:54.925Z,54.18
2017-06-21T06:31:42.991Z,54.10
2017-06-21T06:32:37.121Z,54.39
2017-06-21T06:33:31.055Z,53.91
2017-06-21T06:34:25.124Z,54.85
2017-06-21T06:35:19.861Z,54.78
2017-06-21T06:36:20.167Z,55.08
2017-06-21T06:37:14.120Z,54.62
2017-06-21T06:38:14.310Z,54.36
2017-06-21T06:39:08.146Z,53.78
2017-06-21T06:40:03.172Z,55.15
2017-06-21T06:40:52.470Z,54.71
2017-06-21T06:41:46.537Z,55.11
2017-06-21T06:42:40.679Z,55.18
2017-06-21T06:43:29.729Z,54.41
2017-06-21T06:44:24.700Z,55.30
2017-06-21T06:45:13.490Z,54.78
2017-06-21T06:46:07.545Z,54.61
2017-06-21T06:47:01.635Z,55.68
2017-06-21T06:47:55.647Z,54.88
2017-06-21T06:48:50.751Z,54.39
2017-06-21T06:49:50.776Z,54.05
2017-06-21T06:50:50.858Z,52.35
2017-06-21T06:51:45.855Z,51.66
2017-06-21T06:52:41.205Z,51.34
2017-06-21T06:53:35.161Z,51.86
2017-06-21T06:54:24.081Z,50.95
2017-06-21T06:55:19.348Z,52.07
2017-06-21T06:56:13.417Z,53.13
2017-06-21T06:57:08.466Z,53.43
2017-06-21T06:58:02.571Z,53.93
2017-06-21T06:58:50.707Z,53.05
2017-06-21T06:59:51.693Z,53.50
2017-06-21T07:00:51.468Z,54.28
2017-06-21T07:01:40.505Z,53.67
2017-06-21T07:02:29.565Z,54.08
2017-06-21T07:03:23.643Z,53.92
2017-06-21T07:04:17.698Z,53.60
2017-06-21T07:05:11.753Z,53.25
2017-06-21T07:06:01.178Z,53.23
2017-06-21T07:06:49.172Z,53.06
2017-06-21T07:07:38.377Z,53.42
2017-06-21T07:08:38.048Z,53.57
2017-06-21T07:09:32.274Z,53.37
2017-06-21T07:10:32.183Z,51.82
2017-06-21T07:11:27.151Z,50.30
2017-06-21T07:12:21.523Z,50.21
2017-06-21T07:13:15.210Z,51.36
2017-06-21T07:14:04.559Z,51.00
2017-06-21T07:14:59.712Z,49.91
2017-06-21T07:15:47.766Z,50.05
2017-06-21T07:16:41.726Z,50.79
2017-06-21T07:17:30.553Z,49.78
2017-06-21T07:18:24.800Z,49.04
2017-06-21T07:19:19.660Z,51.34
2017-06-21T07:20:13.718Z,51.85
2017-06-21T07:21:13.782Z,51.84
2017-06-21T07:22:07.865Z,52.54
2017-06-21T07:22:56.529Z,51.87
2017-06-21T07:23:50.173Z,50.27
2017-06-21T07:24:39.017Z,50.53
2017-06-21T07:25:34.217Z,49.80
2017-06-21T07:26:29.130Z,51.21
2017-06-21T07:27:23.188Z,49.93
2017-06-21T07:28:18.701Z,49.95
2017-06-21T07:29:06.621Z,50.51
2017-06-21T07:30:00.686Z,50.76
2017-06-21T07:30:54.800Z,50.02
2017-06-21T07:31:49.679Z,49.89
2017-06-21T07:32:43.927Z,50.88
2017-06-21T07:33:43.650Z,50.50
2017-06-21T07:34:39.003Z,50.37
2017-06-21T07:35:33.756Z,49.41
2017-06-21T07:36:22.848Z,49.11
2017-06-21T07:37:18.109Z,49.11
2017-06-21T07:38:12.050Z,49.42
2017-06-21T07:39:07.092Z,50.18
2017-06-21T07:40:01.251Z,48.80
2017-06-21T07:40:55.311Z,49.80
2017-06-21T07:41:43.182Z,51.08
2017-06-21T07:42:32.532Z,50.65
2017-06-21T07:43:26.638Z,50.50
2017-06-21T07:44:21.701Z,49.89
2017-06-21T07:45:15.687Z,48.63
2017-06-21T07:46:09.501Z,49.46
2017-06-21T07:47:03.788Z,48.74
2017-06-21T07:47:51.824Z,48.57
2017-06-21T07:48:46.944Z,47.23
2017-06-21T07:49:40.733Z,47.31
2017-06-21T07:50:35.766Z,48.35
2017-06-21T07:51:37.120Z,47.62
2017-06-21T07:52:25.878Z,47.96
2017-06-21T07:53:21.196Z,48.69
2017-06-21T07:54:16.225Z,49.03
2017-06-21T07:55:10.260Z,49.12
2017-06-21T07:55:58.339Z,49.39
2017-06-21T07:56:52.409Z,47.81
2017-06-21T07:57:41.667Z,47.10
2017-06-21T07:58:35.630Z,48.11
2017-06-21T07:59:30.726Z,47.98
2017-06-21T08:00:19.022Z,46.26
2017-06-21T08:01:07.547Z,46.07
2017-06-21T08:02:07.809Z,46.17
2017-06-21T08:02:56.827Z,45.15
2017-06-21T08:03:51.987Z,45.68
2017-06-21T08:04:41.055Z,44.55
2017-06-21T08:05:36.276Z,45.30
2017-06-21T08:06:36.017Z,45.34
2017-06-21T08:07:31.288Z,46.19
2017-06-21T08:08:25.158Z,45.03
2017-06-21T08:09:14.328Z,46.93
2017-06-21T08:10:08.505Z,46.69
2017-06-21T08:11:02.547Z,45.23
2017-06-21T08:11:57.551Z,44.11
2017-06-21T08:12:51.668Z,42.21
2017-06-21T08:13:45.890Z,42.41
2017-06-21T08:14:34.881Z,43.65
2017-06-21T08:15:29.920Z,42.73
2017-06-21T08:16:25.236Z,42.60
2017-06-21T08:17:19.080Z,45.34
2017-06-21T08:18:19.184Z,44.34
2017-06-21T08:19:14.270Z,45.23
2017-06-21T08:20:08.350Z,44.47
2017-06-21T08:20:56.390Z,44.54
2017-06-21T08:21:51.466Z,46.11
2017-06-21T08:22:45.551Z,46.01
2017-06-21T08:23:39.576Z,47.00
2017-06-21T08:24:39.650Z,46.86
2017-06-21T08:25:27.731Z,47.30
2017-06-21T08:26:21.794Z,44.28
2017-06-21T08:27:16.168Z,46.39
2017-06-21T08:28:10.941Z,43.48
2017-06-21T08:29:04.956Z,44.78
2017-06-21T08:30:00.084Z,42.71
2017-06-21T08:30:54.200Z,41.81
2017-06-21T08:31:54.270Z,43.08
2017-06-21T08:32:48.649Z,44.00
2017-06-21T08:33:43.443Z,42.00
2017-06-21T08:34:37.505Z,42.42
2017-06-21T08:35:32.547Z,44.56
2017-06-21T08:36:26.637Z,47.84
2017-06-21T08:37:14.672Z,48.29
2017-06-21T08:38:04.095Z,46.01
2017-06-21T08:39:03.801Z,48.10
2017-06-21T08:39:58.862Z,45.97
2017-06-21T08:40:52.966Z,43.76
2017-06-21T08:41:48.059Z,45.59
2017-06-21T08:42:37.093Z,44.24
2017-06-21T08:43:31.155Z,43.10
2017-06-21T08:44:20.254Z,43.04
2017-06-21T08:45:14.371Z,44.37
2017-06-21T08:46:09.474Z,43.16
2017-06-21T08:47:03.538Z,44.90
2017-06-21T08:48:04.640Z,40.31
2017-06-21T08:48:53.728Z,39.37
2017-06-21T08:49:47.796Z,39.94
2017-06-21T08:50:41.891Z,40.99
2017-06-21T08:51:30.998Z,43.45
2017-06-21T08:52:31.057Z,42.73
2017-06-21T08:53:25.126Z,40.84
2017-06-21T08:54:19.204Z,41.84
2017-06-21T08:55:08.334Z,42.34
2017-06-21T08:56:02.373Z,41.88
2017-06-21T08:56:56.431Z,41.71
2017-06-21T08:57:50.603Z,44.35
2017-06-21T08:58:39.939Z,43.10
2017-06-21T08:59:28.739Z,42.08
2017-06-21T09:00:17.811Z,42.24
2017-06-21T09:01:12.911Z,42.94
2017-06-21T09:02:07.994Z,41.34
2017-06-21T09:03:03.089Z,41.16
2017-06-21T09:03:58.424Z,42.70
2017-06-21T09:04:46.187Z,42.67
2017-06-21T09:05:35.310Z,40.51
2017-06-21T09:06:30.403Z,40.25
2017-06-21T09:07:19.441Z,41.53
2017-06-21T09:08:14.535Z,41.63
2017-06-21T09:09:08.634Z,43.25
2017-06-21T09:09:57.762Z,42.49
2017-06-21T09:10:51.811Z,42.90
2017-06-21T09:11:40.862Z,44.91
2017-06-21T09:12:29.977Z,43.08
2017-06-21T09:13:19.064Z,44.49
2017-06-21T09:14:13.167Z,42.54
2017-06-21T09:15:07.245Z,44.08
2017-06-21T09:16:02.338Z,41.19
2017-06-21T09:16:56.396Z,41.43
2017-06-21T09:17:50.513Z,41.48
2017-06-21T09:18:45.586Z,42.80
2017-06-21T09:19:40.710Z,41.42
2017-06-21T09:20:35.717Z,41.86
2017-06-21T09:21:29.802Z,41.55
2017-06-21T09:22:18.908Z,42.46
2017-06-21T09:23:13.008Z,43.78
2017-06-21T09:24:08.082Z,44.59
2017-06-21T09:25:02.076Z,45.80
2017-06-21T09:25:56.209Z,46.21
2017-06-21T09:26:56.257Z,46.12
2017-06-21T09:27:45.320Z,46.86
2017-06-21T09:28:39.406Z,44.24
2017-06-21T09:29:39.484Z,44.70
2017-06-21T09:30:33.526Z,43.86
2017-06-21T09:31:33.573Z,44.13
2017-06-21T09:32:33.658Z,45.40
2017-06-21T09:33:28.668Z,47.20
2017-06-21T09:34:23.774Z,45.26
2017-06-21T09:35:12.854Z,45.73
2017-06-21T09:36:12.908Z,45.24
2017-06-21T09:37:01.007Z,46.22
2017-06-21T09:37:49.075Z,45.88
2017-06-21T09:38:43.095Z,45.26
2017-06-21T09:39:31.199Z,46.16
2017-06-21T09:40:19.228Z,46.75
2017-06-21T09:41:19.356Z,46.86
2017-06-21T09:42:13.402Z,47.50
2017-06-21T09:43:08.460Z,46.40
2017-06-21T09:44:02.499Z,46.88
2017-06-21T09:44:50.587Z,44.61
2017-06-21T09:45:44.678Z,45.50
2017-06-21T09:46:32.791Z,45.74
2017-06-21T09:47:20.872Z,44.52
2017-06-21T09:48:20.908Z,44.36
2017-06-21T09:49:14.963Z,44.39
2017-06-21T09:50:15.101Z,44.52
2017-06-21T09:51:09.145Z,44.50
2017-06-21T09:51:58.201Z,45.12
2017-06-21T09:52:52.286Z,46.33
2017-06-21T09:53:46.280Z,46.76
2017-06-21T09:54:40.700Z,46.97
2017-06-21T09:55:40.451Z,47.65
2017-06-21T09:56:35.475Z,46.71
2017-06-21T09:57:35.553Z,46.57
2017-06-21T09:58:29.621Z,46.82
2017-06-21T09:59:30.668Z,47.91
2017-06-21T10:00:30.790Z,48.04
2017-06-21T10:01:19.824Z,46.53
2017-06-21T10:02:08.880Z,45.45
2017-06-21T10:03:02.821Z,46.75
2017-06-21T10:04:03.009Z,46.24
2017-06-21T10:04:52.087Z,46.26
2017-06-21T10:05:46.170Z,45.52
2017-06-21T10:06:46.236Z,45.80
2017-06-21T10:07:35.339Z,47.71
2017-06-21T10:08:29.339Z,47.28
2017-06-21T10:09:30.407Z,46.19
2017-06-21T10:10:30.521Z,47.14
2017-06-21T10:11:25.601Z,45.86
2017-06-21T10:12:20.673Z,46.17
2017-06-21T10:13:08.771Z,43.84
2017-06-21T10:14:02.847Z,43.52
2017-06-21T10:15:03.899Z,42.63
2017-06-21T10:15:53.019Z,43.75
2017-06-21T10:16:48.084Z,41.67
2017-06-21T10:17:43.371Z,43.25
2017-06-21T10:18:32.214Z,42.93
2017-06-21T10:19:21.346Z,44.24
2017-06-21T10:20:15.393Z,43.80
2017-06-21T10:21:10.460Z,45.53
2017-06-21T10:22:04.524Z,45.23
2017-06-21T10:22:58.634Z,43.51
2017-06-21T10:23:52.744Z,45.42
2017-06-21T10:24:40.788Z,45.17
2017-06-21T10:25:36.264Z,43.88
2017-06-21T10:26:24.960Z,43.69
2017-06-21T10:27:19.004Z,45.53
2017-06-21T10:28:19.068Z,45.44
2017-06-21T10:29:13.193Z,45.98
2017-06-21T10:30:07.215Z,45.86
2017-06-21T10:31:01.597Z,46.07
2017-06-21T10:31:55.365Z,47.10
2017-06-21T10:32:50.452Z,45.78
2017-06-21T10:33:45.550Z,45.67
2017-06-21T10:34:39.598Z,44.70
2017-06-21T10:35:45.746Z,46.32
2017-06-21T10:36:40.775Z,44.88
2017-06-21T10:37:29.877Z,46.05
2017-06-21T10:38:29.901Z,46.93
2017-06-21T10:39:17.953Z,46.52
2017-06-21T10:40:07.155Z,45.54
2017-06-21T10:41:01.176Z,43.83
2017-06-21T10:42:01.263Z,43.34
2017-06-21T10:42:55.298Z,43.63
2017-06-21T10:43:44.268Z,43.42
2017-06-21T10:44:33.493Z,44.69
2017-06-21T10:45:21.609Z,44.33
2017-06-21T10:46:09.762Z,45.11
2017-06-21T10:46:58.785Z,45.38
2017-06-21T10:47:46.853Z,45.51
2017-06-21T10:48:41.906Z,45.95
2017-06-21T10:49:31.006Z,45.18
2017-06-21T10:50:31.100Z,45.49
2017-06-21T10:51:20.207Z,45.59
2017-06-21T10:52:14.275Z,46.30
2017-06-21T10:53:09.347Z,44.79
2017-06-21T10:54:09.438Z,45.95
2017-06-21T10:55:03.568Z,44.65
2017-06-21T10:55:57.603Z,45.81
2017-06-21T10:56:45.715Z,46.13
2017-06-21T10:57:34.788Z,45.44
2017-06-21T10:58:34.858Z,44.50
2017-06-21T10:59:23.933Z,45.70
2017-06-21T11:00:19.002Z,44.06
2017-06-21T11:01:13.051Z,43.64
2017-06-21T11:02:07.178Z,43.40
2017-06-21T11:03:07.256Z,43.45
2017-06-21T11:04:01.297Z,43.84
2017-06-21T11:05:01.440Z,45.33
2017-06-21T11:05:55.476Z,45.30
2017-06-21T11:06:43.545Z,42.36
2017-06-21T11:07:32.677Z,41.91
2017-06-21T11:08:28.235Z,43.10
2017-06-21T11:09:16.850Z,43.89
2017-06-21T11:10:05.937Z,42.83
2017-06-21T11:10:54.006Z,42.40
2017-06-21T11:11:48.098Z,43.10
2017-06-21T11:12:42.209Z,40.48
2017-06-21T11:13:31.537Z,41.14
2017-06-21T11:14:19.356Z,41.37
2017-06-21T11:15:13.382Z,41.34
2017-06-21T11:16:02.562Z,40.66
2017-06-21T11:16:51.572Z,40.89
2017-06-21T11:17:40.654Z,40.37
2017-06-21T11:18:35.038Z,40.11
2017-06-21T11:19:28.856Z,39.89
2017-06-21T11:20:22.952Z,38.93
2017-06-21T11:21:17.032Z,40.16
2017-06-21T11:22:17.142Z,39.53
2017-06-21T11:23:11.199Z,40.28
2017-06-21T11:24:05.517Z,39.32
2017-06-21T11:24:53.375Z,39.66
2017-06-21T11:25:41.497Z,39.53
2017-06-21T11:26:36.563Z,38.70
2017-06-21T11:27:25.646Z,38.83
2017-06-21T11:28:14.699Z,37.99
2017-06-21T11:29:09.832Z,38.37
2017-06-21T11:30:03.891Z,39.14
2017-06-21T11:30:57.994Z,39.16
2017-06-21T11:31:52.074Z,39.90
2017-06-21T11:32:47.181Z,39.35
2017-06-21T11:33:42.265Z,38.77
2017-06-21T11:34:36.657Z,39.06
2017-06-21T11:35:25.422Z,40.33
2017-06-21T11:36:20.517Z,39.70
2017-06-21T11:37:15.562Z,39.32
2017-06-21T11:38:09.674Z,40.19
2017-06-21T11:39:09.765Z,40.67
2017-06-21T11:40:04.198Z,40.23
2017-06-21T11:40:58.924Z,39.08
2017-06-21T11:41:54.085Z,40.85
2017-06-21T11:42:43.153Z,40.23
2017-06-21T11:43:37.173Z,40.08